createdAt,value
2022-08-10T20:47:57.494Z,21.60
2022-08-10T20:48:37.822Z,21.80
2022-08-10T20:49:24.825Z,21.80
2022-08-10T20:50:07.630Z,21.80
2022-08-10T20:50:46.047Z,21.70
2022-08-10T20:51:24.028Z,21.80
2022-08-10T20:52:19.183Z,21.70
2022-08-10T20:52:53.567Z,21.70
2022-08-10T20:53:29.949Z,21.70
2022-08-10T20:54:06.858Z,21.70
2022-08-10T20:54:49.000Z,21.70
2022-08-10T20:55:27.080Z,21.70
2022-08-10T20:56:12.533Z,21.70
2022-08-10T20:57:00.524Z,21.70
2022-08-10T20:58:02.830Z,21.70
2022-08-10T20:59:09.266Z,21.70
2022-08-10T21:00:02.472Z,21.60
2022-08-10T21:00:53.451Z,21.60
2022-08-10T21:02:05.995Z,21.60
2022-08-10T21:02:56.091Z,21.60
2022-08-10T21:03:43.733Z,21.60
2022-08-10T21:04:34.801Z,21.60
2022-08-10T21:05:20.176Z,21.60
2022-08-10T21:06:09.908Z,21.60
2022-08-10T21:07:57.882Z,21.50
2022-08-10T21:08:34.259Z,21.60
2022-08-10T21:09:25.453Z,21.50
2022-08-10T21:10:07.925Z,21.50
2022-08-10T21:11:02.265Z,21.50
2022-08-10T21:11:50.306Z,21.50
2022-08-10T21:12:50.715Z,21.40
2022-08-10T21:13:45.004Z,21.40
2022-08-10T21:14:36.849Z,21.40
2022-08-10T21:15:23.443Z,21.40
2022-08-10T21:16:08.885Z,21.40
2022-08-10T21:17:04.003Z,21.40
2022-08-10T21:18:12.967Z,21.40
2022-08-10T21:18:57.973Z,21.40
2022-08-10T21:19:55.638Z,21.40
2022-08-10T21:21:59.340Z,21.30
2022-08-10T21:22:41.626Z,21.30
2022-08-10T21:23:18.803Z,21.30
2022-08-10T21:23:58.610Z,21.30
2022-08-10T21:24:40.901Z,21.30
2022-08-10T21:25:20.201Z,21.30
2022-08-10T21:25:41.517Z,21.40
2022-08-10T21:26:10.154Z,21.30
2022-08-10T21:26:56.846Z,21.30
2022-08-10T21:28:14.841Z,21.20
2022-08-10T21:29:11.255Z,21.20
2022-08-10T21:30:08.755Z,21.20
2022-08-10T21:30:59.796Z,21.20
2022-08-10T21:31:49.272Z,21.20
2022-08-10T21:32:39.150Z,21.20
2022-08-10T21:33:21.018Z,21.20
2022-08-10T21:34:39.377Z,21.20
2022-08-10T21:35:39.253Z,21.10
2022-08-10T21:36:18.934Z,21.10
2022-08-10T21:37:00.141Z,21.20
2022-08-10T21:37:56.830Z,21.10
2022-08-10T21:38:46.948Z,21.10
2022-08-10T21:39:42.427Z,21.10
2022-08-10T21:40:40.555Z,21.10
2022-08-10T21:41:57.703Z,21.10
2022-08-10T21:43:04.060Z,21.10
2022-08-10T21:44:07.399Z,21.10
2022-08-10T21:45:16.807Z,21.10
2022-08-10T21:46:24.228Z,21.10
2022-08-10T21:47:43.343Z,21.00
2022-08-10T21:48:57.305Z,21.00
2022-08-10T21:50:04.395Z,21.00
2022-08-10T21:51:07.313Z,21.00
2022-08-10T21:52:06.488Z,21.00
2022-08-10T21:53:04.425Z,21.00
2022-08-10T21:54:04.058Z,21.00
2022-08-10T21:55:04.330Z,21.00
2022-08-10T21:56:07.080Z,21.00
2022-08-10T21:57:12.179Z,20.90
2022-08-10T21:58:12.305Z,20.90
2022-08-10T21:59:13.345Z,20.90
2022-08-10T22:00:11.822Z,20.90
2022-08-10T22:01:39.729Z,20.90
2022-08-10T22:02:41.158Z,20.90
2022-08-10T22:03:44.255Z,20.80
2022-08-10T22:04:36.471Z,20.80
2022-08-10T22:05:39.035Z,20.80
2022-08-10T22:06:33.128Z,20.80
2022-08-10T22:07:33.401Z,20.80
2022-08-10T22:08:30.746Z,20.80
2022-08-10T22:09:28.207Z,20.80
2022-08-10T22:10:31.317Z,20.80
2022-08-10T22:11:28.192Z,20.80
2022-08-10T22:12:31.097Z,20.80
2022-08-10T22:13:25.409Z,20.80
2022-08-10T22:14:17.109Z,20.80
2022-08-10T22:15:11.046Z,20.80
2022-08-10T22:16:11.973Z,20.70
2022-08-10T22:17:59.661Z,20.70
2022-08-10T22:18:31.415Z,20.70
2022-08-10T22:19:24.495Z,20.70
2022-08-10T22:20:24.828Z,20.70
2022-08-10T22:21:29.077Z,20.70
2022-08-10T22:22:45.367Z,20.70
2022-08-10T22:24:16.980Z,20.70
2022-08-10T22:25:39.236Z,20.70
2022-08-10T22:26:44.039Z,20.70
2022-08-10T22:27:56.068Z,20.60
2022-08-10T22:28:48.984Z,20.60
2022-08-10T22:29:52.687Z,20.60
2022-08-10T22:31:22.763Z,20.60
2022-08-10T22:32:18.657Z,20.60
2022-08-10T22:33:33.281Z,20.60
2022-08-10T22:34:41.722Z,20.60
2022-08-10T22:35:55.832Z,20.60
2022-08-10T22:37:10.553Z,20.60
2022-08-10T22:38:15.674Z,20.60
2022-08-10T22:40:07.363Z,20.50
2022-08-10T22:40:35.108Z,20.50
2022-08-10T22:41:32.012Z,20.50
2022-08-10T22:42:58.972Z,20.50
2022-08-10T22:43:51.189Z,20.50
2022-08-10T22:44:44.399Z,20.40
2022-08-10T22:45:38.200Z,20.40
2022-08-10T22:46:36.675Z,20.50
2022-08-10T22:47:37.228Z,20.40
2022-08-10T22:48:29.623Z,20.40
2022-08-10T22:49:03.313Z,20.40
2022-08-10T22:49:37.529Z,20.40
2022-08-10T22:50:12.468Z,20.40
2022-08-10T22:50:48.997Z,20.30
2022-08-10T22:51:26.228Z,20.40
2022-08-10T22:52:05.784Z,20.30
2022-08-10T22:53:01.898Z,20.30
2022-08-10T22:54:02.607Z,20.30
2022-08-10T22:55:03.988Z,20.30
2022-08-10T22:56:00.568Z,20.30
2022-08-10T22:56:56.907Z,20.30
2022-08-10T22:57:48.385Z,20.30
2022-08-10T22:58:40.162Z,20.30
2022-08-10T22:59:14.578Z,20.30
2022-08-10T22:59:50.203Z,20.30
2022-08-10T23:00:31.422Z,20.30
2022-08-10T23:01:11.608Z,20.30
2022-08-10T23:02:07.645Z,20.20
2022-08-10T23:02:52.615Z,20.20
2022-08-10T23:03:29.249Z,20.20
2022-08-10T23:04:12.921Z,20.30
2022-08-10T23:04:55.359Z,20.20
2022-08-10T23:05:35.252Z,20.20
2022-08-10T23:06:16.007Z,20.20
2022-08-10T23:06:56.895Z,20.20
2022-08-10T23:07:34.133Z,20.20
2022-08-10T23:08:29.671Z,20.20
2022-08-10T23:09:10.106Z,20.20
2022-08-10T23:09:47.500Z,20.20
2022-08-10T23:10:29.860Z,20.20
2022-08-10T23:11:08.046Z,20.20
2022-08-10T23:11:46.112Z,20.20
2022-08-10T23:12:38.181Z,20.20
2022-08-10T23:13:35.709Z,20.20
2022-08-10T23:14:13.839Z,20.20
2022-08-10T23:14:59.299Z,20.20
2022-08-10T23:15:56.710Z,20.20
2022-08-10T23:16:56.431Z,20.20
2022-08-10T23:18:01.196Z,20.20
2022-08-10T23:18:58.962Z,20.20
2022-08-10T23:19:39.578Z,20.20
2022-08-10T23:20:20.915Z,20.20
2022-08-10T23:21:01.333Z,20.10
2022-08-10T23:22:02.969Z,20.10
2022-08-10T23:22:43.771Z,20.10
2022-08-10T23:23:24.339Z,20.10
2022-08-10T23:24:00.326Z,20.10
